sensor_id;sensor_type;location;lat;lon;timestamp;P1;durP1;ratioP1;P2;durP2;ratioP2
53925;SDS011;39836;52.754;6.866;2023-10-13T10:22:35;14.95;;;6.60;;
53925;SDS011;39836;52.754;6.866;2023-10-13T10:25:27;20.73;;;7.00;;
53925;SDS011;39836;52.754;6.866;2023-10-13T10:31:11;15.80;;;7.43;;
53925;SDS011;39836;52.754;6.866;2023-10-13T10:33:45;16.55;;;7.10;;
53925;SDS011;39836;52.754;6.866;2023-10-13T10:36:22;20.80;;;7.50;;
53925;SDS011;39836;52.754;6.866;2023-10-13T10:38:55;23.73;;;7.05;;
53925;SDS011;39836;52.754;6.866;2023-10-13T10:41:26;20.83;;;8.05;;
53925;SDS011;39836;52.754;6.866;2023-10-13T10:44:16;21.10;;;7.53;;
53925;SDS011;39836;52.754;6.866;2023-10-13T10:46:48;17.15;;;7.45;;
53925;SDS011;39836;52.754;6.866;2023-10-13T10:49:21;16.92;;;7.03;;
53925;SDS011;39836;52.754;6.866;2023-10-13T10:51:58;12.80;;;6.97;;
53925;SDS011;39836;52.754;6.866;2023-10-13T10:54:31;12.57;;;5.97;;
53925;SDS011;39836;52.754;6.866;2023-10-13T10:56:57;20.83;;;7.22;;
53925;SDS011;39836;52.754;6.866;2023-10-13T10:59:37;18.83;;;7.25;;
53925;SDS011;39836;52.754;6.866;2023-10-13T11:02:04;16.88;;;6.38;;
53925;SDS011;39836;52.754;6.866;2023-10-13T11:04:32;13.43;;;6.13;;
53925;SDS011;39836;52.754;6.866;2023-10-13T11:07:06;23.08;;;7.03;;
53925;SDS011;39836;52.754;6.866;2023-10-13T11:09:34;15.23;;;7.55;;
53925;SDS011;39836;52.754;6.866;2023-10-13T11:14:59;17.08;;;6.88;;
53925;SDS011;39836;52.754;6.866;2023-10-13T11:17:26;15.63;;;5.80;;
53925;SDS011;39836;52.754;6.866;2023-10-13T11:20:12;14.07;;;6.43;;
53925;SDS011;39836;52.754;6.866;2023-10-13T11:22:46;18.90;;;6.22;;
53925;SDS011;39836;52.754;6.866;2023-10-13T11:25:19;18.83;;;6.90;;
53925;SDS011;39836;52.754;6.866;2023-10-13T11:27:54;17.88;;;6.22;;
53925;SDS011;39836;52.754;6.866;2023-10-13T11:30:22;19.20;;;5.95;;
53925;SDS011;39836;52.754;6.866;2023-10-13T11:35:31;17.67;;;6.13;;
53925;SDS011;39836;52.754;6.866;2023-10-13T11:38:17;15.23;;;6.90;;
53925;SDS011;39836;52.754;6.866;2023-10-13T11:40:57;18.75;;;6.93;;
53925;SDS011;39836;52.754;6.866;2023-10-13T11:43:34;11.85;;;5.90;;
53925;SDS011;39836;52.754;6.866;2023-10-13T11:46:09;18.80;;;6.85;;
53925;SDS011;39836;52.754;6.866;2023-10-13T11:48:35;16.40;;;5.60;;
53925;SDS011;39836;52.754;6.866;2023-10-13T11:51:02;18.38;;;7.15;;
53925;SDS011;39836;52.754;6.866;2023-10-13T11:53:32;16.38;;;7.18;;
53925;SDS011;39836;52.754;6.866;2023-10-13T11:56:00;14.77;;;6.90;;
53925;SDS011;39836;52.754;6.866;2023-10-13T11:58:26;14.35;;;5.68;;
53925;SDS011;39836;52.754;6.866;2023-10-13T12:00:54;17.00;;;6.85;;
53925;SDS011;39836;52.754;6.866;2023-10-13T12:03:33;18.38;;;6.53;;
53925;SDS011;39836;52.754;6.866;2023-10-13T12:06:18;19.58;;;5.95;;
53925;SDS011;39836;52.754;6.866;2023-10-13T12:08:47;18.05;;;5.82;;
53925;SDS011;39836;52.754;6.866;2023-10-13T12:11:17;17.60;;;7.03;;
53925;SDS011;39836;52.754;6.866;2023-10-13T12:13:56;15.55;;;6.25;;
53925;SDS011;39836;52.754;6.866;2023-10-13T12:16:22;21.23;;;6.90;;
53925;SDS011;39836;52.754;6.866;2023-10-13T12:18:48;16.42;;;6.32;;
53925;SDS011;39836;52.754;6.866;2023-10-13T12:21:20;24.58;;;6.60;;
53925;SDS011;39836;52.754;6.866;2023-10-13T12:23:47;19.92;;;6.22;;
53925;SDS011;39836;52.754;6.866;2023-10-13T12:26:12;12.82;;;6.00;;
53925;SDS011;39836;52.754;6.866;2023-10-13T12:28:45;19.48;;;7.05;;
53925;SDS011;39836;52.754;6.866;2023-10-13T12:31:17;17.80;;;6.53;;
53925;SDS011;39836;52.754;6.866;2023-10-13T12:33:51;13.37;;;6.43;;
53925;SDS011;39836;52.754;6.866;2023-10-13T12:36:17;14.95;;;6.28;;
53925;SDS011;39836;52.754;6.866;2023-10-13T12:38:46;24.40;;;6.13;;
53925;SDS011;39836;52.754;6.866;2023-10-13T12:41:13;17.90;;;6.05;;
53925;SDS011;39836;52.754;6.866;2023-10-13T12:44:02;14.75;;;6.22;;
53925;SDS011;39836;52.754;6.866;2023-10-13T12:46:46;14.00;;;5.95;;
53925;SDS011;39836;52.754;6.866;2023-10-13T12:49:34;15.88;;;6.50;;
53925;SDS011;39836;52.754;6.866;2023-10-13T12:52:14;17.58;;;5.82;;
53925;SDS011;39836;52.754;6.866;2023-10-13T12:54:51;20.30;;;6.38;;
53925;SDS011;39836;52.754;6.866;2023-10-13T12:57:26;16.02;;;6.45;;
53925;SDS011;39836;52.754;6.866;2023-10-13T12:59:52;24.17;;;6.28;;
53925;SDS011;39836;52.754;6.866;2023-10-13T13:02:22;15.50;;;5.93;;
53925;SDS011;39836;52.754;6.866;2023-10-13T13:04:52;18.15;;;6.93;;
53925;SDS011;39836;52.754;6.866;2023-10-13T13:07:36;16.98;;;6.97;;
53925;SDS011;39836;52.754;6.866;2023-10-13T13:10:13;15.77;;;5.97;;
53925;SDS011;39836;52.754;6.866;2023-10-13T13:12:40;21.17;;;6.60;;
53925;SDS011;39836;52.754;6.866;2023-10-13T13:15:08;13.52;;;6.30;;
53925;SDS011;39836;52.754;6.866;2023-10-13T13:17:36;13.85;;;5.13;;
53925;SDS011;39836;52.754;6.866;2023-10-13T13:20:04;19.48;;;6.88;;
53925;SDS011;39836;52.754;6.866;2023-10-13T13:22:39;15.70;;;5.88;;
53925;SDS011;39836;52.754;6.866;2023-10-13T13:25:05;17.30;;;6.20;;
53925;SDS011;39836;52.754;6.866;2023-10-13T13:27:38;10.88;;;5.50;;
53925;SDS011;39836;52.754;6.866;2023-10-13T13:30:07;23.52;;;6.72;;
53925;SDS011;39836;52.754;6.866;2023-10-13T13:32:38;19.25;;;7.07;;
53925;SDS011;39836;52.754;6.866;2023-10-13T13:35:06;19.77;;;7.18;;
53925;SDS011;39836;52.754;6.866;2023-10-13T13:37:33;18.05;;;5.85;;
53925;SDS011;39836;52.754;6.866;2023-10-13T13:39:59;20.20;;;6.43;;
53925;SDS011;39836;52.754;6.866;2023-10-13T13:42:38;18.08;;;5.65;;
53925;SDS011;39836;52.754;6.866;2023-10-13T13:45:06;22.55;;;6.50;;
53925;SDS011;39836;52.754;6.866;2023-10-13T13:47:52;12.98;;;5.43;;
53925;SDS011;39836;52.754;6.866;2023-10-13T13:50:19;15.60;;;5.78;;
53925;SDS011;39836;52.754;6.866;2023-10-13T13:52:49;20.70;;;5.50;;
53925;SDS011;39836;52.754;6.866;2023-10-13T13:55:18;21.67;;;7.30;;
53925;SDS011;39836;52.754;6.866;2023-10-13T13:57:44;17.42;;;6.65;;
53925;SDS011;39836;52.754;6.866;2023-10-13T14:00:11;16.85;;;6.50;;
53925;SDS011;39836;52.754;6.866;2023-10-13T14:02:42;19.92;;;6.28;;
53925;SDS011;39836;52.754;6.866;2023-10-13T14:05:16;21.85;;;6.72;;
53925;SDS011;39836;52.754;6.866;2023-10-13T14:07:45;19.30;;;7.15;;
53925;SDS011;39836;52.754;6.866;2023-10-13T14:10:15;18.23;;;6.55;;
53925;SDS011;39836;52.754;6.866;2023-10-13T14:12:56;17.02;;;7.15;;
53925;SDS011;39836;52.754;6.866;2023-10-13T14:15:34;18.20;;;6.43;;
53925;SDS011;39836;52.754;6.866;2023-10-13T14:18:11;14.50;;;6.65;;
53925;SDS011;39836;52.754;6.866;2023-10-13T14:20:42;17.33;;;6.45;;
53925;SDS011;39836;52.754;6.866;2023-10-13T14:23:08;16.60;;;7.13;;
53925;SDS011;39836;52.754;6.866;2023-10-13T14:25:37;21.45;;;7.18;;
53925;SDS011;39836;52.754;6.866;2023-10-13T14:28:04;20.60;;;7.80;;
53925;SDS011;39836;52.754;6.866;2023-10-13T14:30:30;19.00;;;7.60;;
53925;SDS011;39836;52.754;6.866;2023-10-13T14:32:56;17.88;;;8.27;;
53925;SDS011;39836;52.754;6.866;2023-10-13T14:35:23;13.63;;;6.40;;
53925;SDS011;39836;52.754;6.866;2023-10-13T14:37:54;16.92;;;7.55;;
53925;SDS011;39836;52.754;6.866;2023-10-13T14:40:20;14.63;;;6.85;;
53925;SDS011;39836;52.754;6.866;2023-10-13T14:42:47;19.02;;;7.20;;
53925;SDS011;39836;52.754;6.866;2023-10-13T14:45:13;18.85;;;6.93;;
53925;SDS011;39836;52.754;6.866;2023-10-13T14:47:41;17.27;;;7.35;;
53925;SDS011;39836;52.754;6.866;2023-10-13T14:50:08;15.07;;;7.32;;
53925;SDS011;39836;52.754;6.866;2023-10-13T14:52:42;17.88;;;7.20;;
53925;SDS011;39836;52.754;6.866;2023-10-13T14:55:08;14.20;;;7.53;;
53925;SDS011;39836;52.754;6.866;2023-10-13T14:57:44;17.30;;;7.13;;
53925;SDS011;39836;52.754;6.866;2023-10-13T15:00:11;22.13;;;7.53;;
53925;SDS011;39836;52.754;6.866;2023-10-13T15:02:39;24.95;;;8.55;;
53925;SDS011;39836;52.754;6.866;2023-10-13T15:05:08;21.95;;;7.78;;
53925;SDS011;39836;52.754;6.866;2023-10-13T15:07:41;25.88;;;8.02;;
53925;SDS011;39836;52.754;6.866;2023-10-13T15:10:16;17.50;;;8.02;;
53925;SDS011;39836;52.754;6.866;2023-10-13T15:12:45;23.25;;;8.65;;
53925;SDS011;39836;52.754;6.866;2023-10-13T15:15:11;24.15;;;7.68;;
53925;SDS011;39836;52.754;6.866;2023-10-13T15:17:44;19.95;;;7.93;;
53925;SDS011;39836;52.754;6.866;2023-10-13T15:20:10;19.73;;;9.13;;
53925;SDS011;39836;52.754;6.866;2023-10-13T15:22:41;15.10;;;7.15;;
53925;SDS011;39836;52.754;6.866;2023-10-13T15:25:07;18.33;;;7.85;;
53925;SDS011;39836;52.754;6.866;2023-10-13T15:27:49;13.93;;;6.95;;
53925;SDS011;39836;52.754;6.866;2023-10-13T15:30:27;17.83;;;7.97;;
53925;SDS011;39836;52.754;6.866;2023-10-13T15:33:13;22.20;;;8.00;;
53925;SDS011;39836;52.754;6.866;2023-10-13T15:35:48;14.98;;;6.70;;
53925;SDS011;39836;52.754;6.866;2023-10-13T15:38:20;20.50;;;8.18;;
53925;SDS011;39836;52.754;6.866;2023-10-13T15:40:52;19.92;;;8.40;;
53925;SDS011;39836;52.754;6.866;2023-10-13T15:43:19;22.02;;;8.07;;
53925;SDS011;39836;52.754;6.866;2023-10-13T15:45:45;14.52;;;6.88;;
53925;SDS011;39836;52.754;6.866;2023-10-13T15:48:11;21.98;;;8.27;;
53925;SDS011;39836;52.754;6.866;2023-10-13T15:50:37;22.73;;;7.95;;
53925;SDS011;39836;52.754;6.866;2023-10-13T15:53:05;18.48;;;8.75;;
53925;SDS011;39836;52.754;6.866;2023-10-13T15:55:34;17.83;;;8.13;;
53925;SDS011;39836;52.754;6.866;2023-10-13T15:58:01;24.48;;;7.20;;
53925;SDS011;39836;52.754;6.866;2023-10-13T16:00:28;20.17;;;8.45;;
53925;SDS011;39836;52.754;6.866;2023-10-13T16:02:55;16.58;;;6.68;;
53925;SDS011;39836;52.754;6.866;2023-10-13T16:05:28;16.55;;;8.23;;
53925;SDS011;39836;52.754;6.866;2023-10-13T16:08:00;19.25;;;7.35;;
53925;SDS011;39836;52.754;6.866;2023-10-13T16:10:28;15.15;;;7.97;;
53925;SDS011;39836;52.754;6.866;2023-10-13T16:12:54;22.23;;;8.65;;
53925;SDS011;39836;52.754;6.866;2023-10-13T16:15:23;23.02;;;7.38;;
53925;SDS011;39836;52.754;6.866;2023-10-13T16:17:48;21.77;;;8.65;;
53925;SDS011;39836;52.754;6.866;2023-10-13T16:20:18;19.00;;;8.63;;
53925;SDS011;39836;52.754;6.866;2023-10-13T16:22:46;17.98;;;7.97;;
53925;SDS011;39836;52.754;6.866;2023-10-13T16:25:13;20.55;;;9.15;;
53925;SDS011;39836;52.754;6.866;2023-10-13T16:27:40;16.83;;;8.27;;
53925;SDS011;39836;52.754;6.866;2023-10-13T16:30:11;18.00;;;8.57;;
53925;SDS011;39836;52.754;6.866;2023-10-13T16:32:44;17.17;;;8.00;;
53925;SDS011;39836;52.754;6.866;2023-10-13T16:35:17;20.60;;;7.45;;
53925;SDS011;39836;52.754;6.866;2023-10-13T16:37:46;19.27;;;8.30;;
53925;SDS011;39836;52.754;6.866;2023-10-13T16:40:16;20.90;;;8.10;;
53925;SDS011;39836;52.754;6.866;2023-10-13T16:42:46;22.30;;;8.60;;
53925;SDS011;39836;52.754;6.866;2023-10-13T16:45:13;25.05;;;8.75;;
53925;SDS011;39836;52.754;6.866;2023-10-13T16:47:49;21.52;;;9.05;;
53925;SDS011;39836;52.754;6.866;2023-10-13T16:50:16;22.30;;;9.68;;
53925;SDS011;39836;52.754;6.866;2023-10-13T16:55:44;19.60;;;8.30;;
53925;SDS011;39836;52.754;6.866;2023-10-13T16:58:15;25.77;;;9.15;;
53925;SDS011;39836;52.754;6.866;2023-10-13T17:00:41;19.75;;;7.55;;
53925;SDS011;39836;52.754;6.866;2023-10-13T17:03:17;20.17;;;8.52;;
53925;SDS011;39836;52.754;6.866;2023-10-13T17:05:54;14.40;;;7.60;;
53925;SDS011;39836;52.754;6.866;2023-10-13T17:08:29;14.93;;;7.88;;
53925;SDS011;39836;52.754;6.866;2023-10-13T17:25:20;20.80;;;8.75;;
53925;SDS011;39836;52.754;6.866;2023-10-13T18:30:29;23.38;;;10.07;;
